28 minutes ago
Runway Headwind Crosswind Length
5/23 3 kt 9 kt 8,858 ft
METAR EHLE 231625Z AUTO 34010KT 320V020 9999 OVC037 16/11 Q1022 NOSIG

METAR definition | Embed

METAR Lelystad Airport

Lelystad Airport is a midsized airport in Lelystad, The Netherlands. The airport has one runway: 5/23 (8,858 ft)

This report was made for Lelystad Airport on June 23, 2021 6:25 pm, local time.

Airport observations

The wind is from direction northnorthwest (340°) with a speed of 10 kt. The wind direction varies between northwest (320°) and northnortheast (020°).

Visibility is 6¼ mi or more.

There are overcast clouds at an altitude of 3,700 ft. The ceiling, broken or more, is 3,700 ft.

The temperature and wind chill are 61 °F. The dew point is 52 °F, the relative humidity is 72%. The air pressure at sea level is 30.18 inHg (QNH).

Daylight period

Today the sun rises at 5:15 am and sets at 10:04 pm. This applies to Lelystad Airport, the universal daylight period may be different. The difference between the local time and UTC is +2 hour. Daylight saving time is currently in progress.

Historical data

Donate

Will you help us to keep Metar-Taf.com running?
Your contribution helps further development of the site and to pay for the expenses.

No more ads

Are you donating $ 5 or more? Then we'll never show you ads again, as a token of our eternal gratitude!
Log in before you donate

Do you want the flying weather of Lelystad Airport on your website? Read more   Free!